sensor_id;sensor_type;location;lat;lon;timestamp;P1;durP1;ratioP1;P2;durP2;ratioP2
53875;SDS011;39789;53.216;5.624;2023-07-29T00:02:21;8.95;;;6.10;;
53875;SDS011;39789;53.216;5.624;2023-07-29T00:04:47;11.23;;;5.45;;
53875;SDS011;39789;53.216;5.624;2023-07-29T00:07:13;9.60;;;6.32;;
53875;SDS011;39789;53.216;5.624;2023-07-29T00:09:38;10.70;;;6.13;;
53875;SDS011;39789;53.216;5.624;2023-07-29T00:12:04;7.97;;;5.82;;
53875;SDS011;39789;53.216;5.624;2023-07-29T00:14:30;11.88;;;6.82;;
53875;SDS011;39789;53.216;5.624;2023-07-29T00:16:55;9.23;;;6.28;;
53875;SDS011;39789;53.216;5.624;2023-07-29T00:19:21;10.55;;;5.90;;
53875;SDS011;39789;53.216;5.624;2023-07-29T00:21:48;11.82;;;6.10;;
53875;SDS011;39789;53.216;5.624;2023-07-29T00:24:14;9.93;;;5.43;;
53875;SDS011;39789;53.216;5.624;2023-07-29T00:26:39;15.52;;;6.32;;
53875;SDS011;39789;53.216;5.624;2023-07-29T00:29:08;12.93;;;6.03;;
53875;SDS011;39789;53.216;5.624;2023-07-29T00:31:33;8.15;;;5.30;;
53875;SDS011;39789;53.216;5.624;2023-07-29T00:33:59;8.20;;;4.68;;
53875;SDS011;39789;53.216;5.624;2023-07-29T00:36:24;15.48;;;6.35;;
53875;SDS011;39789;53.216;5.624;2023-07-29T00:38:50;7.70;;;4.95;;
53875;SDS011;39789;53.216;5.624;2023-07-29T00:41:18;9.98;;;4.90;;
53875;SDS011;39789;53.216;5.624;2023-07-29T00:43:44;11.40;;;5.07;;
53875;SDS011;39789;53.216;5.624;2023-07-29T00:46:09;8.48;;;4.97;;
53875;SDS011;39789;53.216;5.624;2023-07-29T00:48:37;8.30;;;5.35;;
53875;SDS011;39789;53.216;5.624;2023-07-29T00:51:03;9.93;;;4.38;;
53875;SDS011;39789;53.216;5.624;2023-07-29T00:53:29;11.25;;;5.00;;
53875;SDS011;39789;53.216;5.624;2023-07-29T00:55:55;10.48;;;5.60;;
53875;SDS011;39789;53.216;5.624;2023-07-29T00:58:20;11.27;;;5.32;;
53875;SDS011;39789;53.216;5.624;2023-07-29T01:00:46;7.85;;;5.30;;
53875;SDS011;39789;53.216;5.624;2023-07-29T01:03:12;9.15;;;5.32;;
53875;SDS011;39789;53.216;5.624;2023-07-29T01:05:41;9.25;;;5.10;;
53875;SDS011;39789;53.216;5.624;2023-07-29T01:08:19;9.95;;;5.95;;
53875;SDS011;39789;53.216;5.624;2023-07-29T01:10:52;11.43;;;6.70;;
53875;SDS011;39789;53.216;5.624;2023-07-29T01:13:31;10.00;;;5.50;;
53875;SDS011;39789;53.216;5.624;2023-07-29T01:19:07;11.82;;;6.20;;
53875;SDS011;39789;53.216;5.624;2023-07-29T01:21:46;13.90;;;6.18;;
53875;SDS011;39789;53.216;5.624;2023-07-29T01:24:12;11.45;;;6.78;;
53875;SDS011;39789;53.216;5.624;2023-07-29T01:26:38;14.27;;;6.78;;
53875;SDS011;39789;53.216;5.624;2023-07-29T01:29:04;8.07;;;5.95;;
53875;SDS011;39789;53.216;5.624;2023-07-29T01:31:33;23.88;;;6.45;;
53875;SDS011;39789;53.216;5.624;2023-07-29T01:34:44;12.82;;;6.20;;
53875;SDS011;39789;53.216;5.624;2023-07-29T01:36:59;8.48;;;6.07;;
53875;SDS011;39789;53.216;5.624;2023-07-29T01:39:28;10.68;;;5.75;;
53875;SDS011;39789;53.216;5.624;2023-07-29T01:41:57;10.50;;;6.57;;
53875;SDS011;39789;53.216;5.624;2023-07-29T01:44:23;10.10;;;6.38;;
53875;SDS011;39789;53.216;5.624;2023-07-29T01:46:50;9.40;;;6.07;;
53875;SDS011;39789;53.216;5.624;2023-07-29T01:49:16;12.80;;;7.03;;
53875;SDS011;39789;53.216;5.624;2023-07-29T01:51:41;12.07;;;6.85;;
53875;SDS011;39789;53.216;5.624;2023-07-29T01:54:07;11.07;;;7.03;;
53875;SDS011;39789;53.216;5.624;2023-07-29T01:56:33;13.48;;;7.60;;
53875;SDS011;39789;53.216;5.624;2023-07-29T01:58:58;11.30;;;7.10;;
53875;SDS011;39789;53.216;5.624;2023-07-29T02:01:24;13.25;;;7.82;;
53875;SDS011;39789;53.216;5.624;2023-07-29T02:03:49;10.73;;;6.72;;
53875;SDS011;39789;53.216;5.624;2023-07-29T02:06:20;12.13;;;7.32;;
53875;SDS011;39789;53.216;5.624;2023-07-29T02:08:46;13.20;;;7.60;;
53875;SDS011;39789;53.216;5.624;2023-07-29T02:11:11;13.73;;;7.63;;
53875;SDS011;39789;53.216;5.624;2023-07-29T02:13:37;11.38;;;6.53;;
53875;SDS011;39789;53.216;5.624;2023-07-29T02:16:02;10.88;;;7.30;;
53875;SDS011;39789;53.216;5.624;2023-07-29T02:18:28;16.35;;;6.45;;
53875;SDS011;39789;53.216;5.624;2023-07-29T02:20:54;10.45;;;5.65;;
53875;SDS011;39789;53.216;5.624;2023-07-29T02:23:19;21.40;;;5.80;;
53875;SDS011;39789;53.216;5.624;2023-07-29T02:25:45;9.43;;;5.60;;
53875;SDS011;39789;53.216;5.624;2023-07-29T02:28:10;14.30;;;5.40;;
53875;SDS011;39789;53.216;5.624;2023-07-29T02:30:36;7.97;;;4.97;;
53875;SDS011;39789;53.216;5.624;2023-07-29T02:33:05;9.00;;;4.75;;
53875;SDS011;39789;53.216;5.624;2023-07-29T02:35:31;7.13;;;4.15;;
53875;SDS011;39789;53.216;5.624;2023-07-29T02:37:56;13.35;;;4.68;;
53875;SDS011;39789;53.216;5.624;2023-07-29T02:40:22;9.68;;;5.00;;
53875;SDS011;39789;53.216;5.624;2023-07-29T02:42:48;10.00;;;4.65;;
53875;SDS011;39789;53.216;5.624;2023-07-29T02:45:13;7.55;;;5.28;;
53875;SDS011;39789;53.216;5.624;2023-07-29T02:47:39;10.20;;;4.70;;
53875;SDS011;39789;53.216;5.624;2023-07-29T02:50:05;7.75;;;4.18;;
53875;SDS011;39789;53.216;5.624;2023-07-29T02:52:30;9.23;;;4.65;;
53875;SDS011;39789;53.216;5.624;2023-07-29T02:54:56;10.85;;;4.05;;
53875;SDS011;39789;53.216;5.624;2023-07-29T02:57:22;7.65;;;4.25;;
53875;SDS011;39789;53.216;5.624;2023-07-29T02:59:47;10.43;;;3.45;;
53875;SDS011;39789;53.216;5.624;2023-07-29T03:02:13;12.13;;;4.50;;
53875;SDS011;39789;53.216;5.624;2023-07-29T03:04:41;10.73;;;3.88;;
53875;SDS011;39789;53.216;5.624;2023-07-29T03:07:06;9.95;;;4.03;;
53875;SDS011;39789;53.216;5.624;2023-07-29T03:09:32;9.45;;;4.20;;
53875;SDS011;39789;53.216;5.624;2023-07-29T03:11:58;14.82;;;4.30;;
53875;SDS011;39789;53.216;5.624;2023-07-29T03:14:24;7.15;;;3.50;;
53875;SDS011;39789;53.216;5.624;2023-07-29T03:16:50;7.85;;;3.90;;
53875;SDS011;39789;53.216;5.624;2023-07-29T03:19:15;6.47;;;3.30;;
53875;SDS011;39789;53.216;5.624;2023-07-29T03:21:41;9.50;;;3.67;;
53875;SDS011;39789;53.216;5.624;2023-07-29T03:24:07;12.45;;;4.20;;
53875;SDS011;39789;53.216;5.624;2023-07-29T03:26:32;6.78;;;4.18;;
53875;SDS011;39789;53.216;5.624;2023-07-29T03:28:58;9.35;;;3.90;;
53875;SDS011;39789;53.216;5.624;2023-07-29T03:31:23;12.00;;;4.38;;
53875;SDS011;39789;53.216;5.624;2023-07-29T03:33:49;8.27;;;3.90;;
53875;SDS011;39789;53.216;5.624;2023-07-29T03:36:15;9.38;;;3.50;;
53875;SDS011;39789;53.216;5.624;2023-07-29T03:38:40;8.77;;;3.95;;
53875;SDS011;39789;53.216;5.624;2023-07-29T03:41:07;8.15;;;4.07;;
53875;SDS011;39789;53.216;5.624;2023-07-29T03:43:33;7.55;;;3.65;;
53875;SDS011;39789;53.216;5.624;2023-07-29T03:45:59;10.50;;;4.05;;
53875;SDS011;39789;53.216;5.624;2023-07-29T03:48:25;8.05;;;4.00;;
53875;SDS011;39789;53.216;5.624;2023-07-29T03:50:51;9.98;;;3.97;;
53875;SDS011;39789;53.216;5.624;2023-07-29T03:53:16;11.13;;;3.90;;
53875;SDS011;39789;53.216;5.624;2023-07-29T03:55:42;11.15;;;4.05;;
53875;SDS011;39789;53.216;5.624;2023-07-29T03:58:12;8.55;;;3.30;;
53875;SDS011;39789;53.216;5.624;2023-07-29T04:00:37;8.88;;;4.03;;
53875;SDS011;39789;53.216;5.624;2023-07-29T04:03:03;17.33;;;4.47;;
53875;SDS011;39789;53.216;5.624;2023-07-29T04:05:29;6.22;;;3.53;;
53875;SDS011;39789;53.216;5.624;2023-07-29T04:07:54;9.18;;;4.07;;
53875;SDS011;39789;53.216;5.624;2023-07-29T04:10:20;8.85;;;4.35;;
53875;SDS011;39789;53.216;5.624;2023-07-29T04:12:46;7.22;;;3.85;;
53875;SDS011;39789;53.216;5.624;2023-07-29T04:15:11;7.93;;;3.75;;
53875;SDS011;39789;53.216;5.624;2023-07-29T04:17:37;6.30;;;3.53;;
53875;SDS011;39789;53.216;5.624;2023-07-29T04:20:02;6.85;;;2.72;;
53875;SDS011;39789;53.216;5.624;2023-07-29T04:22:29;14.05;;;4.45;;
53875;SDS011;39789;53.216;5.624;2023-07-29T04:24:54;6.28;;;3.25;;
53875;SDS011;39789;53.216;5.624;2023-07-29T04:27:20;10.25;;;3.13;;
53875;SDS011;39789;53.216;5.624;2023-07-29T04:29:46;8.90;;;3.40;;
53875;SDS011;39789;53.216;5.624;2023-07-29T04:32:11;7.82;;;2.83;;
53875;SDS011;39789;53.216;5.624;2023-07-29T04:34:37;9.10;;;3.35;;
53875;SDS011;39789;53.216;5.624;2023-07-29T04:37:02;5.85;;;3.08;;
53875;SDS011;39789;53.216;5.624;2023-07-29T04:39:28;7.38;;;3.63;;
53875;SDS011;39789;53.216;5.624;2023-07-29T04:41:53;9.98;;;3.55;;
53875;SDS011;39789;53.216;5.624;2023-07-29T04:44:19;7.43;;;3.60;;
53875;SDS011;39789;53.216;5.624;2023-07-29T04:46:44;4.35;;;3.15;;
53875;SDS011;39789;53.216;5.624;2023-07-29T04:49:11;6.97;;;3.40;;
53875;SDS011;39789;53.216;5.624;2023-07-29T04:51:36;7.93;;;3.38;;
53875;SDS011;39789;53.216;5.624;2023-07-29T04:54:02;10.57;;;3.20;;
53875;SDS011;39789;53.216;5.624;2023-07-29T04:56:28;9.85;;;3.42;;
53875;SDS011;39789;53.216;5.624;2023-07-29T04:58:53;7.13;;;3.40;;
53875;SDS011;39789;53.216;5.624;2023-07-29T05:01:19;7.72;;;3.20;;
53875;SDS011;39789;53.216;5.624;2023-07-29T05:03:44;5.88;;;3.40;;
53875;SDS011;39789;53.216;5.624;2023-07-29T05:06:10;8.75;;;3.53;;
53875;SDS011;39789;53.216;5.624;2023-07-29T05:08:36;8.00;;;3.33;;
53875;SDS011;39789;53.216;5.624;2023-07-29T05:11:01;8.38;;;3.03;;
53875;SDS011;39789;53.216;5.624;2023-07-29T05:13:27;10.35;;;3.80;;
53875;SDS011;39789;53.216;5.624;2023-07-29T05:15:53;9.18;;;4.40;;
53875;SDS011;39789;53.216;5.624;2023-07-29T05:18:19;11.50;;;3.30;;
53875;SDS011;39789;53.216;5.624;2023-07-29T05:20:44;7.80;;;4.05;;
53875;SDS011;39789;53.216;5.624;2023-07-29T05:23:11;15.25;;;3.80;;
53875;SDS011;39789;53.216;5.624;2023-07-29T05:25:37;6.22;;;2.83;;
53875;SDS011;39789;53.216;5.624;2023-07-29T05:28:03;9.88;;;3.10;;
53875;SDS011;39789;53.216;5.624;2023-07-29T05:30:29;8.52;;;4.00;;
53875;SDS011;39789;53.216;5.624;2023-07-29T05:33:02;7.82;;;3.63;;
53875;SDS011;39789;53.216;5.624;2023-07-29T05:35:28;11.90;;;4.13;;
53875;SDS011;39789;53.216;5.624;2023-07-29T05:37:54;6.60;;;3.58;;
53875;SDS011;39789;53.216;5.624;2023-07-29T05:40:19;8.20;;;3.55;;
53875;SDS011;39789;53.216;5.624;2023-07-29T05:42:45;8.10;;;3.33;;
53875;SDS011;39789;53.216;5.624;2023-07-29T05:45:11;10.75;;;4.20;;
53875;SDS011;39789;53.216;5.624;2023-07-29T05:47:37;7.65;;;3.78;;
53875;SDS011;39789;53.216;5.624;2023-07-29T05:50:03;10.75;;;4.10;;
53875;SDS011;39789;53.216;5.624;2023-07-29T05:52:32;7.90;;;4.03;;
53875;SDS011;39789;53.216;5.624;2023-07-29T05:54:58;11.65;;;4.57;;
53875;SDS011;39789;53.216;5.624;2023-07-29T05:57:24;7.57;;;3.78;;
53875;SDS011;39789;53.216;5.624;2023-07-29T05:59:49;10.48;;;4.65;;
53875;SDS011;39789;53.216;5.624;2023-07-29T06:02:15;7.82;;;3.97;;
53875;SDS011;39789;53.216;5.624;2023-07-29T06:04:41;14.98;;;3.75;;
53875;SDS011;39789;53.216;5.624;2023-07-29T06:07:06;7.90;;;3.83;;
53875;SDS011;39789;53.216;5.624;2023-07-29T06:09:32;11.00;;;4.53;;
53875;SDS011;39789;53.216;5.624;2023-07-29T06:11:58;6.93;;;3.70;;
53875;SDS011;39789;53.216;5.624;2023-07-29T06:14:23;16.15;;;4.70;;
53875;SDS011;39789;53.216;5.624;2023-07-29T06:16:49;8.32;;;3.80;;
53875;SDS011;39789;53.216;5.624;2023-07-29T06:19:14;9.48;;;3.95;;
53875;SDS011;39789;53.216;5.624;2023-07-29T06:21:40;11.90;;;4.07;;
53875;SDS011;39789;53.216;5.624;2023-07-29T06:24:06;9.18;;;3.85;;
53875;SDS011;39789;53.216;5.624;2023-07-29T06:26:31;7.15;;;3.92;;
53875;SDS011;39789;53.216;5.624;2023-07-29T06:28:57;8.80;;;3.25;;
53875;SDS011;39789;53.216;5.624;2023-07-29T06:31:22;9.23;;;3.88;;
53875;SDS011;39789;53.216;5.624;2023-07-29T06:33:48;15.52;;;3.40;;
53875;SDS011;39789;53.216;5.624;2023-07-29T06:36:13;6.63;;;3.22;;
53875;SDS011;39789;53.216;5.624;2023-07-29T06:38:39;8.50;;;2.83;;
53875;SDS011;39789;53.216;5.624;2023-07-29T06:41:06;7.25;;;2.83;;
53875;SDS011;39789;53.216;5.624;2023-07-29T06:43:31;8.82;;;2.90;;
53875;SDS011;39789;53.216;5.624;2023-07-29T06:45:57;8.93;;;3.05;;
53875;SDS011;39789;53.216;5.624;2023-07-29T06:48:23;8.93;;;3.15;;
53875;SDS011;39789;53.216;5.624;2023-07-29T06:50:49;8.40;;;3.20;;
53875;SDS011;39789;53.216;5.624;2023-07-29T06:53:17;10.73;;;3.17;;
53875;SDS011;39789;53.216;5.624;2023-07-29T06:55:43;9.52;;;2.70;;
53875;SDS011;39789;53.216;5.624;2023-07-29T06:58:10;9.27;;;2.75;;
53875;SDS011;39789;53.216;5.624;2023-07-29T07:00:35;10.60;;;3.10;;
53875;SDS011;39789;53.216;5.624;2023-07-29T07:03:01;7.05;;;2.70;;
53875;SDS011;39789;53.216;5.624;2023-07-29T07:05:27;8.45;;;2.90;;
53875;SDS011;39789;53.216;5.624;2023-07-29T07:07:52;6.18;;;2.60;;
53875;SDS011;39789;53.216;5.624;2023-07-29T07:10:18;8.40;;;2.72;;
53875;SDS011;39789;53.216;5.624;2023-07-29T07:12:44;7.72;;;2.47;;
53875;SDS011;39789;53.216;5.624;2023-07-29T07:15:10;6.38;;;2.50;;
53875;SDS011;39789;53.216;5.624;2023-07-29T07:17:35;16.08;;;3.75;;
53875;SDS011;39789;53.216;5.624;2023-07-29T07:20:01;7.43;;;2.45;;
53875;SDS011;39789;53.216;5.624;2023-07-29T07:22:26;7.63;;;2.75;;
53875;SDS011;39789;53.216;5.624;2023-07-29T07:24:52;12.25;;;2.90;;
53875;SDS011;39789;53.216;5.624;2023-07-29T07:27:18;12.15;;;3.85;;
53875;SDS011;39789;53.216;5.624;2023-07-29T07:29:43;8.75;;;3.00;;
53875;SDS011;39789;53.216;5.624;2023-07-29T07:32:09;7.70;;;2.35;;
53875;SDS011;39789;53.216;5.624;2023-07-29T07:34:34;8.98;;;2.45;;
53875;SDS011;39789;53.216;5.624;2023-07-29T07:37:00;6.05;;;2.45;;
53875;SDS011;39789;53.216;5.624;2023-07-29T07:39:26;12.18;;;2.95;;
53875;SDS011;39789;53.216;5.624;2023-07-29T07:41:52;5.28;;;2.58;;
53875;SDS011;39789;53.216;5.624;2023-07-29T07:44:17;6.47;;;2.33;;
53875;SDS011;39789;53.216;5.624;2023-07-29T07:46:44;8.15;;;3.08;;
53875;SDS011;39789;53.216;5.624;2023-07-29T07:49:10;11.32;;;2.67;;
53875;SDS011;39789;53.216;5.624;2023-07-29T07:51:37;8.40;;;3.13;;
53875;SDS011;39789;53.216;5.624;2023-07-29T07:54:03;6.28;;;2.45;;
53875;SDS011;39789;53.216;5.624;2023-07-29T07:56:29;11.90;;;2.50;;
53875;SDS011;39789;53.216;5.624;2023-07-29T07:58:54;8.32;;;2.22;;
53875;SDS011;39789;53.216;5.624;2023-07-29T08:01:20;7.93;;;2.65;;
53875;SDS011;39789;53.216;5.624;2023-07-29T08:03:45;5.00;;;2.40;;
53875;SDS011;39789;53.216;5.624;2023-07-29T08:06:11;8.02;;;2.63;;
53875;SDS011;39789;53.216;5.624;2023-07-29T08:08:36;9.00;;;2.30;;
53875;SDS011;39789;53.216;5.624;2023-07-29T08:11:02;7.78;;;2.15;;
53875;SDS011;39789;53.216;5.624;2023-07-29T08:13:30;6.22;;;2.30;;
53875;SDS011;39789;53.216;5.624;2023-07-29T08:15:56;7.22;;;2.20;;
53875;SDS011;39789;53.216;5.624;2023-07-29T08:18:21;4.22;;;2.15;;
53875;SDS011;39789;53.216;5.624;2023-07-29T08:20:53;5.93;;;2.35;;
53875;SDS011;39789;53.216;5.624;2023-07-29T08:23:20;5.93;;;2.43;;
53875;SDS011;39789;53.216;5.624;2023-07-29T08:25:56;5.43;;;2.30;;
53875;SDS011;39789;53.216;5.624;2023-07-29T08:28:27;7.18;;;2.25;;
53875;SDS011;39789;53.216;5.624;2023-07-29T08:30:53;7.50;;;2.80;;
53875;SDS011;39789;53.216;5.624;2023-07-29T08:33:19;4.72;;;2.20;;
53875;SDS011;39789;53.216;5.624;2023-07-29T08:35:45;6.25;;;2.05;;
53875;SDS011;39789;53.216;5.624;2023-07-29T08:38:10;4.55;;;2.30;;
53875;SDS011;39789;53.216;5.624;2023-07-29T08:40:37;8.55;;;2.55;;
53875;SDS011;39789;53.216;5.624;2023-07-29T08:43:07;6.30;;;2.33;;
53875;SDS011;39789;53.216;5.624;2023-07-29T08:45:35;3.83;;;2.13;;
53875;SDS011;39789;53.216;5.624;2023-07-29T08:48:02;4.65;;;2.20;;
53875;SDS011;39789;53.216;5.624;2023-07-29T08:50:30;6.32;;;2.72;;
53875;SDS011;39789;53.216;5.624;2023-07-29T08:52:58;4.05;;;2.22;;
53875;SDS011;39789;53.216;5.624;2023-07-29T08:55:25;4.07;;;2.13;;
53875;SDS011;39789;53.216;5.624;2023-07-29T08:57:51;6.38;;;2.53;;
53875;SDS011;39789;53.216;5.624;2023-07-29T09:00:17;5.95;;;1.98;;
53875;SDS011;39789;53.216;5.624;2023-07-29T09:02:43;8.10;;;1.90;;
53875;SDS011;39789;53.216;5.624;2023-07-29T09:05:08;6.60;;;2.40;;
53875;SDS011;39789;53.216;5.624;2023-07-29T09:07:34;2.97;;;1.70;;
53875;SDS011;39789;53.216;5.624;2023-07-29T09:10:02;2.90;;;1.83;;
53875;SDS011;39789;53.216;5.624;2023-07-29T09:12:27;4.40;;;1.80;;
53875;SDS011;39789;53.216;5.624;2023-07-29T09:14:53;5.00;;;2.15;;
53875;SDS011;39789;53.216;5.624;2023-07-29T09:17:21;6.40;;;2.20;;
53875;SDS011;39789;53.216;5.624;2023-07-29T09:19:48;8.50;;;2.72;;
53875;SDS011;39789;53.216;5.624;2023-07-29T09:22:18;6.03;;;2.10;;
53875;SDS011;39789;53.216;5.624;2023-07-29T09:24:45;3.65;;;2.00;;
53875;SDS011;39789;53.216;5.624;2023-07-29T09:27:24;4.55;;;1.92;;
53875;SDS011;39789;53.216;5.624;2023-07-29T09:29:56;3.85;;;2.17;;
53875;SDS011;39789;53.216;5.624;2023-07-29T09:32:23;7.28;;;1.90;;
53875;SDS011;39789;53.216;5.624;2023-07-29T09:34:49;4.75;;;1.92;;
53875;SDS011;39789;53.216;5.624;2023-07-29T09:37:22;3.55;;;1.88;;
53875;SDS011;39789;53.216;5.624;2023-07-29T09:39:48;3.40;;;1.98;;
53875;SDS011;39789;53.216;5.624;2023-07-29T09:42:18;4.50;;;2.13;;
53875;SDS011;39789;53.216;5.624;2023-07-29T09:44:48;3.95;;;1.77;;
53875;SDS011;39789;53.216;5.624;2023-07-29T09:49:47;3.13;;;2.10;;
53875;SDS011;39789;53.216;5.624;2023-07-29T09:52:14;4.22;;;2.03;;
53875;SDS011;39789;53.216;5.624;2023-07-29T09:54:44;5.13;;;2.40;;
53875;SDS011;39789;53.216;5.624;2023-07-29T09:57:10;3.03;;;1.80;;
53875;SDS011;39789;53.216;5.624;2023-07-29T09:59:38;5.25;;;1.77;;
53875;SDS011;39789;53.216;5.624;2023-07-29T10:02:04;5.15;;;1.80;;
53875;SDS011;39789;53.216;5.624;2023-07-29T10:04:30;2.70;;;1.60;;
53875;SDS011;39789;53.216;5.624;2023-07-29T10:06:57;1.95;;;1.50;;
53875;SDS011;39789;53.216;5.624;2023-07-29T10:09:24;3.80;;;1.83;;
53875;SDS011;39789;53.216;5.624;2023-07-29T10:11:50;4.95;;;2.33;;
53875;SDS011;39789;53.216;5.624;2023-07-29T10:14:18;3.72;;;1.70;;
53875;SDS011;39789;53.216;5.624;2023-07-29T10:16:45;3.20;;;2.20;;
53875;SDS011;39789;53.216;5.624;2023-07-29T10:19:11;4.60;;;2.03;;
53875;SDS011;39789;53.216;5.624;2023-07-29T10:21:39;5.57;;;1.85;;
53875;SDS011;39789;53.216;5.624;2023-07-29T10:24:15;3.40;;;2.15;;
53875;SDS011;39789;53.216;5.624;2023-07-29T10:26:44;4.40;;;1.95;;
53875;SDS011;39789;53.216;5.624;2023-07-29T10:29:12;7.07;;;2.30;;
53875;SDS011;39789;53.216;5.624;2023-07-29T10:31:40;7.97;;;2.70;;
53875;SDS011;39789;53.216;5.624;2023-07-29T10:34:08;6.88;;;2.72;;
53875;SDS011;39789;53.216;5.624;2023-07-29T10:36:37;4.70;;;2.25;;
53875;SDS011;39789;53.216;5.624;2023-07-29T10:39:03;5.95;;;2.55;;
53875;SDS011;39789;53.216;5.624;2023-07-29T10:41:53;11.80;;;2.63;;
53875;SDS011;39789;53.216;5.624;2023-07-29T10:47:20;2.05;;;1.25;;
53875;SDS011;39789;53.216;5.624;2023-07-29T10:49:54;7.88;;;1.50;;
53875;SDS011;39789;53.216;5.624;2023-07-29T10:55:02;7.53;;;2.05;;
53875;SDS011;39789;53.216;5.624;2023-07-29T10:57:32;2.83;;;1.48;;
53875;SDS011;39789;53.216;5.624;2023-07-29T11:00:06;3.17;;;1.30;;
53875;SDS011;39789;53.216;5.624;2023-07-29T11:02:33;6.18;;;1.52;;
53875;SDS011;39789;53.216;5.624;2023-07-29T11:05:04;4.40;;;1.85;;
53875;SDS011;39789;53.216;5.624;2023-07-29T11:07:32;4.55;;;2.05;;
53875;SDS011;39789;53.216;5.624;2023-07-29T11:10:12;6.75;;;2.28;;
53875;SDS011;39789;53.216;5.624;2023-07-29T11:20:25;2.67;;;1.70;;
53875;SDS011;39789;53.216;5.624;2023-07-29T11:22:55;5.25;;;2.03;;
53875;SDS011;39789;53.216;5.624;2023-07-29T11:25:22;7.35;;;1.98;;
53875;SDS011;39789;53.216;5.624;2023-07-29T11:27:49;3.95;;;1.73;;
53875;SDS011;39789;53.216;5.624;2023-07-29T11:30:16;4.60;;;2.13;;
53875;SDS011;39789;53.216;5.624;2023-07-29T11:32:43;3.40;;;1.73;;
53875;SDS011;39789;53.216;5.624;2023-07-29T11:35:13;3.92;;;1.77;;
53875;SDS011;39789;53.216;5.624;2023-07-29T11:37:40;4.28;;;1.77;;
53875;SDS011;39789;53.216;5.624;2023-07-29T11:40:08;3.78;;;1.63;;
53875;SDS011;39789;53.216;5.624;2023-07-29T11:42:37;3.45;;;2.30;;
53875;SDS011;39789;53.216;5.624;2023-07-29T11:45:03;6.22;;;1.88;;
53875;SDS011;39789;53.216;5.624;2023-07-29T11:47:34;4.97;;;1.90;;
53875;SDS011;39789;53.216;5.624;2023-07-29T11:50:02;3.53;;;1.52;;
53875;SDS011;39789;53.216;5.624;2023-07-29T11:52:29;5.20;;;1.73;;
53875;SDS011;39789;53.216;5.624;2023-07-29T11:54:57;7.07;;;2.00;;
53875;SDS011;39789;53.216;5.624;2023-07-29T11:57:23;5.68;;;1.70;;
53875;SDS011;39789;53.216;5.624;2023-07-29T11:59:49;7.03;;;2.85;;
53875;SDS011;39789;53.216;5.624;2023-07-29T12:02:15;6.28;;;2.20;;
53875;SDS011;39789;53.216;5.624;2023-07-29T12:04:43;6.97;;;2.30;;
53875;SDS011;39789;53.216;5.624;2023-07-29T12:07:12;5.20;;;2.05;;
53875;SDS011;39789;53.216;5.624;2023-07-29T12:09:38;3.25;;;2.10;;
53875;SDS011;39789;53.216;5.624;2023-07-29T12:12:05;5.93;;;2.40;;
53875;SDS011;39789;53.216;5.624;2023-07-29T12:14:32;6.75;;;2.15;;
53875;SDS011;39789;53.216;5.624;2023-07-29T12:17:01;6.25;;;2.33;;
53875;SDS011;39789;53.216;5.624;2023-07-29T12:19:32;6.88;;;2.47;;
53875;SDS011;39789;53.216;5.624;2023-07-29T12:21:59;6.82;;;2.03;;
53875;SDS011;39789;53.216;5.624;2023-07-29T12:24:25;7.18;;;1.98;;
53875;SDS011;39789;53.216;5.624;2023-07-29T12:26:51;8.85;;;2.45;;
53875;SDS011;39789;53.216;5.624;2023-07-29T12:29:17;6.80;;;2.53;;
53875;SDS011;39789;53.216;5.624;2023-07-29T12:31:46;7.38;;;2.28;;
53875;SDS011;39789;53.216;5.624;2023-07-29T12:34:19;6.15;;;2.60;;
53875;SDS011;39789;53.216;5.624;2023-07-29T12:36:45;8.85;;;3.15;;
53875;SDS011;39789;53.216;5.624;2023-07-29T12:39:19;4.32;;;2.08;;
53875;SDS011;39789;53.216;5.624;2023-07-29T12:41:46;6.35;;;2.50;;
53875;SDS011;39789;53.216;5.624;2023-07-29T12:44:13;10.48;;;2.63;;
53875;SDS011;39789;53.216;5.624;2023-07-29T12:46:38;6.30;;;2.38;;
53875;SDS011;39789;53.216;5.624;2023-07-29T12:49:04;5.90;;;2.50;;
53875;SDS011;39789;53.216;5.624;2023-07-29T12:51:30;8.10;;;2.88;;
53875;SDS011;39789;53.216;5.624;2023-07-29T12:53:56;14.60;;;2.80;;
53875;SDS011;39789;53.216;5.624;2023-07-29T12:56:21;9.55;;;2.42;;
53875;SDS011;39789;53.216;5.624;2023-07-29T12:58:47;9.68;;;2.30;;
53875;SDS011;39789;53.216;5.624;2023-07-29T13:01:13;8.63;;;2.80;;
53875;SDS011;39789;53.216;5.624;2023-07-29T13:03:42;4.68;;;2.20;;
53875;SDS011;39789;53.216;5.624;2023-07-29T13:06:09;9.85;;;2.45;;
53875;SDS011;39789;53.216;5.624;2023-07-29T13:08:34;9.00;;;2.38;;
53875;SDS011;39789;53.216;5.624;2023-07-29T13:11:00;6.60;;;2.40;;
53875;SDS011;39789;53.216;5.624;2023-07-29T13:13:26;7.45;;;2.30;;
53875;SDS011;39789;53.216;5.624;2023-07-29T13:15:51;7.47;;;2.67;;
53875;SDS011;39789;53.216;5.624;2023-07-29T13:18:17;10.55;;;2.72;;
53875;SDS011;39789;53.216;5.624;2023-07-29T13:20:43;6.85;;;2.85;;
53875;SDS011;39789;53.216;5.624;2023-07-29T13:23:11;5.60;;;2.80;;
53875;SDS011;39789;53.216;5.624;2023-07-29T13:25:37;7.30;;;2.28;;
53875;SDS011;39789;53.216;5.624;2023-07-29T13:28:02;6.53;;;2.83;;
53875;SDS011;39789;53.216;5.624;2023-07-29T13:30:28;4.90;;;2.28;;
53875;SDS011;39789;53.216;5.624;2023-07-29T13:32:54;11.88;;;2.70;;
53875;SDS011;39789;53.216;5.624;2023-07-29T13:35:20;4.75;;;2.33;;
53875;SDS011;39789;53.216;5.624;2023-07-29T13:37:47;7.75;;;2.50;;
53875;SDS011;39789;53.216;5.624;2023-07-29T13:40:12;4.63;;;2.67;;
53875;SDS011;39789;53.216;5.624;2023-07-29T13:42:38;5.82;;;2.97;;
53875;SDS011;39789;53.216;5.624;2023-07-29T13:45:04;5.22;;;2.65;;
53875;SDS011;39789;53.216;5.624;2023-07-29T13:47:29;8.05;;;2.70;;
53875;SDS011;39789;53.216;5.624;2023-07-29T13:49:55;9.50;;;2.75;;
53875;SDS011;39789;53.216;5.624;2023-07-29T13:52:21;5.78;;;2.42;;
53875;SDS011;39789;53.216;5.624;2023-07-29T13:54:46;4.80;;;2.08;;
53875;SDS011;39789;53.216;5.624;2023-07-29T13:57:12;4.20;;;2.05;;
53875;SDS011;39789;53.216;5.624;2023-07-29T13:59:37;7.90;;;2.50;;
53875;SDS011;39789;53.216;5.624;2023-07-29T14:02:04;5.72;;;2.17;;
53875;SDS011;39789;53.216;5.624;2023-07-29T14:04:30;3.70;;;1.98;;
53875;SDS011;39789;53.216;5.624;2023-07-29T14:06:57;9.90;;;2.25;;
53875;SDS011;39789;53.216;5.624;2023-07-29T14:09:23;4.28;;;2.10;;
53875;SDS011;39789;53.216;5.624;2023-07-29T14:11:48;5.18;;;2.08;;
53875;SDS011;39789;53.216;5.624;2023-07-29T14:14:14;3.75;;;1.80;;
53875;SDS011;39789;53.216;5.624;2023-07-29T14:16:43;3.70;;;1.88;;
53875;SDS011;39789;53.216;5.624;2023-07-29T14:19:09;4.28;;;2.03;;
53875;SDS011;39789;53.216;5.624;2023-07-29T14:21:34;3.72;;;1.88;;
53875;SDS011;39789;53.216;5.624;2023-07-29T14:24:00;4.40;;;1.90;;
53875;SDS011;39789;53.216;5.624;2023-07-29T14:26:26;3.45;;;1.83;;
53875;SDS011;39789;53.216;5.624;2023-07-29T14:28:51;3.70;;;2.35;;
53875;SDS011;39789;53.216;5.624;2023-07-29T14:31:17;5.47;;;2.30;;
53875;SDS011;39789;53.216;5.624;2023-07-29T14:33:43;3.03;;;1.90;;
53875;SDS011;39789;53.216;5.624;2023-07-29T14:36:09;3.83;;;1.80;;
53875;SDS011;39789;53.216;5.624;2023-07-29T14:38:35;8.77;;;2.45;;
53875;SDS011;39789;53.216;5.624;2023-07-29T14:41:02;6.45;;;2.17;;
53875;SDS011;39789;53.216;5.624;2023-07-29T14:43:29;4.68;;;2.00;;
53875;SDS011;39789;53.216;5.624;2023-07-29T14:45:55;6.95;;;2.63;;
53875;SDS011;39789;53.216;5.624;2023-07-29T14:48:22;4.47;;;1.90;;
53875;SDS011;39789;53.216;5.624;2023-07-29T14:50:48;4.80;;;2.38;;
53875;SDS011;39789;53.216;5.624;2023-07-29T14:53:13;5.65;;;2.45;;
53875;SDS011;39789;53.216;5.624;2023-07-29T14:55:39;4.65;;;1.90;;
53875;SDS011;39789;53.216;5.624;2023-07-29T14:58:05;4.65;;;1.80;;
53875;SDS011;39789;53.216;5.624;2023-07-29T15:00:31;4.20;;;1.90;;
53875;SDS011;39789;53.216;5.624;2023-07-29T15:02:57;5.22;;;2.35;;